Time;durP1;ratioP1;P1;durP2;ratioP2;P2;SDS_P1;SDS_P2;PMS_P1;PMS_P2;Temp;Humidity;BMP_temperature;BMP_pressure;BME280_temperature;BME280_humidity;BME280_pressure;Samples;Min_cycle;Max_cycle;Signal;HPM_P1;HPM_P2
2023/08/05 00:01:06;;;;;;;4.63;4.07;;;;;;;;;;5062422;28;20033;-79
2023/08/05 00:03:31;;;;;;;7.05;3.75;;;;;;;;;;5045910;28;20108;-79
2023/08/05 00:05:57;;;;;;;5.97;3.75;;;;;;;;;;5047217;28;20547;-79
2023/08/05 00:08:23;;;;;;;6.15;3.92;;;;;;;;;;5042113;28;20583;-79
2023/08/05 00:10:49;;;;;;;5.32;4.10;;;;;;;;;;5047182;28;20033;-79
2023/08/05 00:13:14;;;;;;;5.75;4.35;;;;;;;;;;5046583;28;20033;-78
2023/08/05 00:15:40;;;;;;;7.82;4.78;;;;;;;;;;5041643;28;20040;-78
2023/08/05 00:18:05;;;;;;;4.78;4.28;;;;;;;;;;5062342;28;20021;-79
2023/08/05 00:20:30;;;;;;;5.65;4.55;;;;;;;;;;5041790;28;20025;-79
2023/08/05 00:22:56;;;;;;;5.50;4.65;;;;;;;;;;5063513;28;20063;-79
2023/08/05 00:25:21;;;;;;;4.75;4.30;;;;;;;;;;5059316;28;20033;-79
2023/08/05 00:27:47;;;;;;;7.07;4.72;;;;;;;;;;5044024;28;20025;-79
2023/08/05 00:30:12;;;;;;;5.47;4.13;;;;;;;;;;5042103;28;20396;-78
2023/08/05 00:32:38;;;;;;;5.25;4.30;;;;;;;;;;5046105;28;20702;-79
2023/08/05 00:35:05;;;;;;;6.00;4.25;;;;;;;;;;5043414;28;20040;-78
2023/08/05 00:37:30;;;;;;;3.78;3.47;;;;;;;;;;5047004;28;20021;-78
2023/08/05 00:39:55;;;;;;;5.03;4.40;;;;;;;;;;5058537;28;20128;-77
2023/08/05 00:42:21;;;;;;;4.57;3.95;;;;;;;;;;5044906;28;20013;-77
2023/08/05 00:44:46;;;;;;;3.92;3.42;;;;;;;;;;5044246;28;20431;-77
2023/08/05 00:47:15;;;;;;;5.93;4.03;;;;;;;;;;5061486;28;20210;-77
2023/08/05 00:49:40;;;;;;;4.43;4.03;;;;;;;;;;5045010;28;20065;-77
2023/08/05 00:52:07;;;;;;;7.45;4.15;;;;;;;;;;5048547;28;20509;-77
2023/08/05 00:54:32;;;;;;;8.05;3.95;;;;;;;;;;5045962;28;20062;-77
2023/08/05 00:56:58;;;;;;;4.05;3.60;;;;;;;;;;5048572;28;20029;-77
2023/08/05 00:59:23;;;;;;;6.63;3.88;;;;;;;;;;5044455;28;20046;-77
2023/08/05 01:01:49;;;;;;;4.60;3.65;;;;;;;;;;5043076;28;20396;-77
2023/08/05 01:04:14;;;;;;;7.30;3.67;;;;;;;;;;5060388;28;20029;-77
2023/08/05 01:06:40;;;;;;;5.75;3.80;;;;;;;;;;5051365;28;20167;-77
2023/08/05 01:09:06;;;;;;;8.82;3.45;;;;;;;;;;5054957;28;20021;-77
2023/08/05 01:11:31;;;;;;;3.38;3.08;;;;;;;;;;5060644;28;20112;-77
2023/08/05 01:13:57;;;;;;;3.90;2.80;;;;;;;;;;5043372;28;20025;-77
2023/08/05 01:16:22;;;;;;;2.67;2.47;;;;;;;;;;5041629;28;20412;-77
2023/08/05 01:18:48;;;;;;;4.45;2.65;;;;;;;;;;5041175;28;20072;-77
2023/08/05 01:21:24;;;;;;;4.60;2.85;;;;;;;;;;5058395;28;20044;-77
2023/08/05 01:23:56;;;;;;;2.78;2.58;;;;;;;;;;5046973;28;20079;-77
2023/08/05 01:26:22;;;;;;;4.28;3.05;;;;;;;;;;5042501;28;20091;-77
2023/08/05 01:28:47;;;;;;;3.75;3.40;;;;;;;;;;5043123;28;20044;-77
2023/08/05 01:31:15;;;;;;;3.95;3.00;;;;;;;;;;5045515;28;20028;-78
2023/08/05 01:33:41;;;;;;;3.40;3.20;;;;;;;;;;5057577;28;20106;-77
2023/08/05 01:36:06;;;;;;;3.85;3.55;;;;;;;;;;5042799;28;20026;-77
2023/08/05 01:38:31;;;;;;;4.45;4.05;;;;;;;;;;5043644;28;20112;-77
2023/08/05 01:40:56;;;;;;;4.68;4.28;;;;;;;;;;5041517;28;20032;-78
2023/08/05 01:43:22;;;;;;;7.38;4.95;;;;;;;;;;5046019;28;21007;-77
2023/08/05 01:45:47;;;;;;;5.72;5.13;;;;;;;;;;5043879;28;20034;-77
2023/08/05 01:48:12;;;;;;;5.18;4.65;;;;;;;;;;5057715;28;20090;-77
2023/08/05 01:50:38;;;;;;;6.55;5.60;;;;;;;;;;5041854;28;20093;-77
2023/08/05 01:53:03;;;;;;;7.95;4.97;;;;;;;;;;5059211;28;20038;-78
2023/08/05 01:55:28;;;;;;;6.22;5.63;;;;;;;;;;5043770;28;20120;-77
2023/08/05 01:57:54;;;;;;;8.65;6.80;;;;;;;;;;5056658;28;20029;-77
2023/08/05 02:00:21;;;;;;;10.20;7.10;;;;;;;;;;5045515;28;20052;-77
2023/08/05 02:02:46;;;;;;;11.93;8.52;;;;;;;;;;5044557;28;20025;-77
2023/08/05 02:05:12;;;;;;;10.50;7.88;;;;;;;;;;5040983;28;20025;-77
2023/08/05 02:07:37;;;;;;;12.43;8.80;;;;;;;;;;5044667;28;20094;-77
2023/08/05 02:10:02;;;;;;;11.85;7.45;;;;;;;;;;5049778;28;20025;-77
2023/08/05 02:12:28;;;;;;;10.57;7.55;;;;;;;;;;5043935;28;20037;-77
2023/08/05 02:14:53;;;;;;;10.63;7.90;;;;;;;;;;5046511;28;20021;-77
2023/08/05 02:17:20;;;;;;;11.95;7.57;;;;;;;;;;5060883;28;20171;-77
2023/08/05 02:19:45;;;;;;;13.68;7.88;;;;;;;;;;5043571;28;20037;-77
2023/08/05 02:22:10;;;;;;;9.52;6.88;;;;;;;;;;5053830;28;20025;-76
2023/08/05 02:24:36;;;;;;;13.27;8.25;;;;;;;;;;5043158;28;20472;-77
2023/08/05 02:27:01;;;;;;;11.05;8.27;;;;;;;;;;5048222;28;20017;-78
2023/08/05 02:29:26;;;;;;;12.35;8.65;;;;;;;;;;5044330;28;20095;-77
2023/08/05 02:31:52;;;;;;;8.85;6.80;;;;;;;;;;5044298;28;20033;-79
2023/08/05 02:34:17;;;;;;;8.27;7.47;;;;;;;;;;5057095;28;20099;-77
2023/08/05 02:36:42;;;;;;;10.88;8.25;;;;;;;;;;5049929;28;20037;-77
2023/08/05 02:39:08;;;;;;;10.48;7.80;;;;;;;;;;5044872;28;20376;-76
2023/08/05 02:41:33;;;;;;;10.50;6.53;;;;;;;;;;5047540;28;20071;-76
2023/08/05 02:43:58;;;;;;;9.07;6.53;;;;;;;;;;5065014;28;20025;-76
2023/08/05 02:46:23;;;;;;;11.05;6.43;;;;;;;;;;5060064;28;20036;-76
2023/08/05 02:48:49;;;;;;;9.75;6.40;;;;;;;;;;5045166;28;20056;-77
2023/08/05 02:51:14;;;;;;;8.35;6.60;;;;;;;;;;5040036;28;20017;-76
2023/08/05 02:53:40;;;;;;;9.00;7.22;;;;;;;;;;5047842;28;20016;-76
2023/08/05 02:56:06;;;;;;;11.50;6.95;;;;;;;;;;5044317;28;20051;-77
2023/08/05 02:58:31;;;;;;;10.10;7.38;;;;;;;;;;5044336;28;20025;-76
2023/08/05 03:01:08;;;;;;;8.88;7.32;;;;;;;;;;5045037;28;20044;-76
2023/08/05 03:03:34;;;;;;;10.60;6.85;;;;;;;;;;5044097;28;20389;-76
2023/08/05 03:06:00;;;;;;;10.25;7.72;;;;;;;;;;5046039;28;20628;-76
2023/08/05 03:08:25;;;;;;;11.02;7.82;;;;;;;;;;5046385;28;20037;-76
2023/08/05 03:10:58;;;;;;;12.43;6.88;;;;;;;;;;5042452;28;20030;-77
2023/08/05 03:13:23;;;;;;;10.10;6.53;;;;;;;;;;5045395;28;20029;-76
2023/08/05 03:15:49;;;;;;;10.10;7.00;;;;;;;;;;5043834;28;20040;-76
2023/08/05 03:18:14;;;;;;;9.82;6.20;;;;;;;;;;5040054;28;20026;-76
2023/08/05 03:20:39;;;;;;;10.75;7.50;;;;;;;;;;5045729;28;20522;-76
2023/08/05 03:23:05;;;;;;;8.40;5.65;;;;;;;;;;5048440;28;20034;-75
2023/08/05 03:25:30;;;;;;;10.45;5.65;;;;;;;;;;5043386;28;20036;-77
2023/08/05 03:27:55;;;;;;;11.10;5.68;;;;;;;;;;5045951;28;20038;-77
2023/08/05 03:30:21;;;;;;;7.20;5.70;;;;;;;;;;5064643;28;20032;-76
2023/08/05 03:32:47;;;;;;;6.95;5.25;;;;;;;;;;5046854;28;20033;-78
2023/08/05 03:35:13;;;;;;;5.68;4.75;;;;;;;;;;5050030;28;20028;-75
2023/08/05 03:37:38;;;;;;;5.47;3.92;;;;;;;;;;5043085;28;20041;-76
2023/08/05 03:40:04;;;;;;;5.30;4.22;;;;;;;;;;5046441;28;20040;-76
2023/08/05 03:42:30;;;;;;;5.93;4.50;;;;;;;;;;5046783;28;20416;-76
2023/08/05 03:44:55;;;;;;;4.50;3.50;;;;;;;;;;5049293;28;20016;-75
2023/08/05 03:47:21;;;;;;;6.47;3.60;;;;;;;;;;5047371;28;20029;-76
2023/08/05 03:49:46;;;;;;;4.65;3.67;;;;;;;;;;5045178;28;20037;-75
2023/08/05 03:52:12;;;;;;;4.57;3.83;;;;;;;;;;5040764;28;20037;-75
2023/08/05 03:54:37;;;;;;;4.78;3.83;;;;;;;;;;5044481;28;20060;-76
2023/08/05 03:57:08;;;;;;;6.30;4.07;;;;;;;;;;5048616;28;20091;-76
2023/08/05 03:59:33;;;;;;;5.78;4.50;;;;;;;;;;5040689;28;20045;-76
2023/08/05 04:01:58;;;;;;;5.50;3.95;;;;;;;;;;5043996;28;20044;-75
2023/08/05 04:04:24;;;;;;;6.45;4.68;;;;;;;;;;5041414;28;20025;-77
2023/08/05 04:06:49;;;;;;;6.05;4.43;;;;;;;;;;5045249;28;20524;-77
2023/08/05 04:09:15;;;;;;;6.38;4.95;;;;;;;;;;5045244;28;20178;-76
2023/08/05 04:11:40;;;;;;;5.82;4.65;;;;;;;;;;5049103;28;20025;-78
2023/08/05 04:14:06;;;;;;;9.50;5.20;;;;;;;;;;5047645;28;20393;-77
2023/08/05 04:16:31;;;;;;;6.40;4.80;;;;;;;;;;5045440;28;20025;-77
2023/08/05 04:18:59;;;;;;;6.30;4.95;;;;;;;;;;5048705;28;20041;-75
2023/08/05 04:21:28;;;;;;;9.63;5.63;;;;;;;;;;5044657;28;20025;-78
2023/08/05 04:23:56;;;;;;;8.70;5.28;;;;;;;;;;5063375;28;20028;-76
2023/08/05 04:26:22;;;;;;;7.72;5.35;;;;;;;;;;5048933;28;20113;-77
2023/08/05 04:28:47;;;;;;;13.82;6.00;;;;;;;;;;5046574;28;20139;-77
2023/08/05 04:31:13;;;;;;;11.35;5.97;;;;;;;;;;5048629;28;20033;-78
2023/08/05 04:33:39;;;;;;;9.57;6.55;;;;;;;;;;5064347;28;20456;-79
2023/08/05 04:36:04;;;;;;;16.77;7.00;;;;;;;;;;5049543;28;20154;-75
2023/08/05 04:38:29;;;;;;;13.45;7.22;;;;;;;;;;5047795;28;20017;-77
2023/08/05 04:40:55;;;;;;;16.02;7.68;;;;;;;;;;5045052;28;20083;-82
2023/08/05 04:43:20;;;;;;;10.95;7.07;;;;;;;;;;5044560;28;20171;-78
2023/08/05 04:45:50;;;;;;;12.77;7.75;;;;;;;;;;5042009;28;20370;-77
2023/08/05 04:48:15;;;;;;;12.68;8.32;;;;;;;;;;5047299;28;20016;-77
2023/08/05 04:50:40;;;;;;;14.77;8.20;;;;;;;;;;5064597;28;20021;-77
2023/08/05 04:53:06;;;;;;;16.52;9.27;;;;;;;;;;5051200;28;20037;-78
2023/08/05 04:55:31;;;;;;;14.85;8.93;;;;;;;;;;5049676;28;20025;-77
2023/08/05 04:57:57;;;;;;;15.82;9.75;;;;;;;;;;5048240;28;20087;-77
2023/08/05 05:00:22;;;;;;;20.90;10.43;;;;;;;;;;5048738;28;20439;-77
2023/08/05 05:02:48;;;;;;;18.10;9.82;;;;;;;;;;5046343;28;20040;-77
2023/08/05 05:05:14;;;;;;;17.88;9.43;;;;;;;;;;5044922;28;20025;-80
2023/08/05 05:07:39;;;;;;;14.38;9.40;;;;;;;;;;5046625;28;20033;-77
2023/08/05 05:10:05;;;;;;;17.40;9.45;;;;;;;;;;5048605;28;20033;-78
2023/08/05 05:12:30;;;;;;;16.13;9.52;;;;;;;;;;5063489;28;20448;-78
2023/08/05 05:14:55;;;;;;;19.02;9.77;;;;;;;;;;5065739;28;20396;-77
2023/08/05 05:17:21;;;;;;;19.30;9.40;;;;;;;;;;5049840;28;20605;-78
2023/08/05 05:19:47;;;;;;;14.10;8.82;;;;;;;;;;5049809;28;20472;-77
2023/08/05 05:22:19;;;;;;;20.00;9.85;;;;;;;;;;5061216;28;20025;-77
2023/08/05 05:24:45;;;;;;;19.13;10.18;;;;;;;;;;5046248;28;20057;-77
2023/08/05 05:27:14;;;;;;;13.95;8.60;;;;;;;;;;5047386;28;20066;-77
2023/08/05 05:29:39;;;;;;;17.73;9.60;;;;;;;;;;5042324;28;20041;-77
2023/08/05 05:32:05;;;;;;;15.32;9.25;;;;;;;;;;5042119;28;20078;-77
2023/08/05 05:34:30;;;;;;;15.45;9.27;;;;;;;;;;5045577;28;20045;-78
2023/08/05 05:36:55;;;;;;;14.38;9.50;;;;;;;;;;5046073;28;20049;-78
2023/08/05 05:39:21;;;;;;;15.23;9.38;;;;;;;;;;5040892;28;20071;-77
2023/08/05 05:41:46;;;;;;;14.85;9.80;;;;;;;;;;5044264;28;20033;-78
2023/08/05 05:44:12;;;;;;;16.42;9.30;;;;;;;;;;5046171;28;20029;-79
2023/08/05 05:46:37;;;;;;;17.65;9.57;;;;;;;;;;5046427;28;20051;-78
2023/08/05 05:49:03;;;;;;;18.70;10.57;;;;;;;;;;5047530;28;20028;-78
2023/08/05 05:51:28;;;;;;;19.65;10.57;;;;;;;;;;5062672;28;20044;-77
2023/08/05 05:53:55;;;;;;;13.02;9.15;;;;;;;;;;5046832;28;20022;-77
2023/08/05 05:56:21;;;;;;;18.17;10.27;;;;;;;;;;5045825;28;20037;-79
2023/08/05 05:58:46;;;;;;;16.73;10.18;;;;;;;;;;5047336;28;20543;-78
2023/08/05 06:01:11;;;;;;;17.52;9.50;;;;;;;;;;5043839;28;20045;-78
2023/08/05 06:03:38;;;;;;;17.02;10.50;;;;;;;;;;5040575;28;20035;-79
2023/08/05 06:06:04;;;;;;;19.00;10.23;;;;;;;;;;5043862;28;20380;-79
2023/08/05 06:08:29;;;;;;;19.35;10.88;;;;;;;;;;5063786;28;20021;-79
2023/08/05 06:10:55;;;;;;;25.98;11.10;;;;;;;;;;5049800;28;20101;-78
2023/08/05 06:13:20;;;;;;;18.52;9.95;;;;;;;;;;5049181;28;20021;-78
2023/08/05 06:15:46;;;;;;;14.57;9.52;;;;;;;;;;5047283;28;20044;-79
2023/08/05 06:18:11;;;;;;;14.88;9.80;;;;;;;;;;5044948;28;20520;-78
2023/08/05 06:20:37;;;;;;;20.13;10.73;;;;;;;;;;5045031;28;20021;-79
2023/08/05 06:23:02;;;;;;;16.90;9.70;;;;;;;;;;5044343;28;21196;-78
2023/08/05 06:25:28;;;;;;;16.17;11.10;;;;;;;;;;5044349;28;20029;-78
2023/08/05 06:27:54;;;;;;;16.67;10.80;;;;;;;;;;5061025;28;20035;-78
2023/08/05 06:30:19;;;;;;;16.85;10.35;;;;;;;;;;5059962;28;20024;-78
2023/08/05 06:32:44;;;;;;;19.48;11.02;;;;;;;;;;5057483;28;20186;-79
2023/08/05 06:35:10;;;;;;;20.88;11.55;;;;;;;;;;5038327;28;20033;-79
2023/08/05 06:37:35;;;;;;;18.63;10.13;;;;;;;;;;5046906;28;20396;-78
2023/08/05 06:40:00;;;;;;;16.20;10.32;;;;;;;;;;5044560;28;20037;-80
2023/08/05 06:42:26;;;;;;;18.42;10.70;;;;;;;;;;5048056;28;20152;-78
2023/08/05 06:44:52;;;;;;;22.13;11.80;;;;;;;;;;5047650;28;21401;-78
2023/08/05 06:47:17;;;;;;;21.60;10.88;;;;;;;;;;5063346;28;20040;-78
2023/08/05 06:49:43;;;;;;;17.70;10.95;;;;;;;;;;5048338;28;20037;-78
2023/08/05 06:52:08;;;;;;;18.02;11.80;;;;;;;;;;5059654;28;20608;-78
2023/08/05 06:54:33;;;;;;;15.55;10.93;;;;;;;;;;5043336;28;20041;-78
2023/08/05 06:56:58;;;;;;;15.73;11.13;;;;;;;;;;5063268;28;20051;-78
2023/08/05 06:59:24;;;;;;;15.25;10.38;;;;;;;;;;5061028;28;20052;-78
2023/08/05 07:01:49;;;;;;;16.98;11.52;;;;;;;;;;5046903;28;20519;-79
2023/08/05 07:04:14;;;;;;;16.05;10.32;;;;;;;;;;5050536;28;20041;-79
2023/08/05 07:06:41;;;;;;;14.55;10.15;;;;;;;;;;5054089;28;20040;-78
2023/08/05 07:09:06;;;;;;;15.13;9.43;;;;;;;;;;5050774;28;20041;-78
2023/08/05 07:11:31;;;;;;;12.93;9.32;;;;;;;;;;5048673;28;20044;-78
2023/08/05 07:13:57;;;;;;;21.48;9.45;;;;;;;;;;5063152;28;20496;-79
2023/08/05 07:16:22;;;;;;;14.80;9.75;;;;;;;;;;5060984;28;20743;-78
2023/08/05 07:18:47;;;;;;;14.38;9.10;;;;;;;;;;5045511;28;20033;-79
2023/08/05 07:21:15;;;;;;;15.10;9.38;;;;;;;;;;5066119;28;20025;-79
2023/08/05 07:23:40;;;;;;;18.40;9.48;;;;;;;;;;5051960;28;20021;-79
2023/08/05 07:26:06;;;;;;;13.68;8.93;;;;;;;;;;5048156;28;20029;-79
2023/08/05 07:28:31;;;;;;;13.65;8.63;;;;;;;;;;5049917;28;20416;-78
2023/08/05 07:31:10;;;;;;;20.52;9.40;;;;;;;;;;5045343;28;20435;-79
2023/08/05 07:33:36;;;;;;;15.98;8.88;;;;;;;;;;5041867;28;20053;-79
2023/08/05 07:36:12;;;;;;;14.77;8.95;;;;;;;;;;5047133;28;20032;-79
2023/08/05 07:38:42;;;;;;;12.88;7.78;;;;;;;;;;5046341;28;20112;-79
2023/08/05 07:41:07;;;;;;;13.27;8.05;;;;;;;;;;5047192;28;20048;-78
2023/08/05 07:43:35;;;;;;;19.00;8.10;;;;;;;;;;5046307;28;20037;-79
2023/08/05 07:46:05;;;;;;;10.70;7.80;;;;;;;;;;5054477;28;20048;-80
2023/08/05 07:48:35;;;;;;;9.23;7.28;;;;;;;;;;5045954;28;20047;-79
2023/08/05 07:51:01;;;;;;;12.00;7.55;;;;;;;;;;5049440;28;20024;-79
2023/08/05 07:53:28;;;;;;;12.15;7.70;;;;;;;;;;5048761;28;20041;-79
2023/08/05 07:55:54;;;;;;;12.10;7.60;;;;;;;;;;5047053;28;20037;-78
2023/08/05 07:58:20;;;;;;;9.32;7.00;;;;;;;;;;5044906;28;20039;-77
2023/08/05 08:00:46;;;;;;;11.55;7.25;;;;;;;;;;5046707;28;20051;-78
2023/08/05 08:03:11;;;;;;;12.73;6.65;;;;;;;;;;5046444;28;20029;-79
2023/08/05 08:05:37;;;;;;;10.50;7.32;;;;;;;;;;5065487;28;20029;-78
2023/08/05 08:08:02;;;;;;;9.25;6.43;;;;;;;;;;5047081;28;20060;-79
2023/08/05 08:10:28;;;;;;;8.35;6.13;;;;;;;;;;5043705;28;20512;-77
2023/08/05 08:12:53;;;;;;;8.30;6.13;;;;;;;;;;5043369;28;20037;-77
2023/08/05 08:15:19;;;;;;;7.80;6.03;;;;;;;;;;5044799;28;20024;-78
2023/08/05 08:17:44;;;;;;;8.40;5.78;;;;;;;;;;5041823;28;20032;-78
2023/08/05 08:20:10;;;;;;;6.85;5.65;;;;;;;;;;5041299;28;20033;-78
2023/08/05 08:22:35;;;;;;;7.55;5.70;;;;;;;;;;5044670;28;20459;-78
2023/08/05 08:25:01;;;;;;;7.22;5.25;;;;;;;;;;5044386;28;20072;-78
2023/08/05 08:27:26;;;;;;;9.32;5.45;;;;;;;;;;5044197;28;20041;-78
2023/08/05 08:29:51;;;;;;;11.13;5.03;;;;;;;;;;5039166;28;20033;-76
2023/08/05 08:32:17;;;;;;;8.52;5.53;;;;;;;;;;5039640;28;20116;-75
2023/08/05 08:34:42;;;;;;;6.82;4.55;;;;;;;;;;5056306;28;20064;-74
2023/08/05 08:37:07;;;;;;;6.97;5.00;;;;;;;;;;5039489;28;20069;-76
2023/08/05 08:39:33;;;;;;;10.98;4.85;;;;;;;;;;5046260;28;20561;-77
2023/08/05 08:41:58;;;;;;;5.47;4.10;;;;;;;;;;5045303;28;20083;-77
2023/08/05 08:44:26;;;;;;;8.35;4.75;;;;;;;;;;5039531;28;20037;-80
2023/08/05 08:46:51;;;;;;;12.88;5.03;;;;;;;;;;5047827;28;20029;-79
2023/08/05 08:49:19;;;;;;;7.82;5.18;;;;;;;;;;5048325;28;20526;-79
2023/08/05 08:51:48;;;;;;;7.03;4.68;;;;;;;;;;5044479;28;20041;-78
2023/08/05 08:54:14;;;;;;;5.80;4.85;;;;;;;;;;5064679;28;20028;-79
2023/08/05 08:56:40;;;;;;;6.63;4.60;;;;;;;;;;5062852;28;20029;-79
2023/08/05 08:59:06;;;;;;;6.90;4.65;;;;;;;;;;5044440;28;20041;-79
2023/08/05 09:01:32;;;;;;;8.93;5.15;;;;;;;;;;5044035;28;20037;-79
2023/08/05 09:03:59;;;;;;;12.35;5.05;;;;;;;;;;5045605;28;20074;-79
2023/08/05 09:06:26;;;;;;;6.90;4.90;;;;;;;;;;5044534;28;20061;-79
2023/08/05 09:08:51;;;;;;;4.68;4.20;;;;;;;;;;5058526;28;20025;-78
2023/08/05 09:11:17;;;;;;;4.85;4.15;;;;;;;;;;5043311;28;20032;-79
2023/08/05 09:13:42;;;;;;;8.32;5.25;;;;;;;;;;5045723;28;20060;-79
2023/08/05 09:16:14;;;;;;;6.35;4.78;;;;;;;;;;5041655;28;20037;-79
2023/08/05 09:18:52;;;;;;;9.38;4.72;;;;;;;;;;5043364;28;20156;-79
2023/08/05 09:21:36;;;;;;;6.75;4.38;;;;;;;;;;5055248;28;20408;-79
2023/08/05 09:24:01;;;;;;;5.50;4.30;;;;;;;;;;5058972;28;20020;-79
2023/08/05 09:26:31;;;;;;;5.07;4.00;;;;;;;;;;5075307;28;20397;-78
2023/08/05 09:28:58;;;;;;;8.52;3.85;;;;;;;;;;5059609;28;20044;-77
2023/08/05 09:31:24;;;;;;;7.03;3.60;;;;;;;;;;5060459;28;20033;-78
2023/08/05 09:33:50;;;;;;;5.15;3.58;;;;;;;;;;5059235;28;20029;-78
2023/08/05 09:36:16;;;;;;;13.73;4.20;;;;;;;;;;5061693;28;20036;-78
2023/08/05 09:38:47;;;;;;;9.02;3.85;;;;;;;;;;5062137;28;20024;-78
2023/08/05 09:41:12;;;;;;;5.50;3.83;;;;;;;;;;5062343;28;20115;-79
2023/08/05 09:43:43;;;;;;;5.47;3.92;;;;;;;;;;5060010;28;20048;-79
2023/08/05 09:46:12;;;;;;;7.43;4.30;;;;;;;;;;5061848;28;20033;-79
2023/08/05 09:48:42;;;;;;;6.93;3.88;;;;;;;;;;5061328;28;20029;-77
2023/08/05 09:51:12;;;;;;;6.68;4.30;;;;;;;;;;5062171;28;20043;-78
2023/08/05 09:53:39;;;;;;;9.13;3.83;;;;;;;;;;5060233;28;20025;-78
2023/08/05 09:56:06;;;;;;;4.53;3.67;;;;;;;;;;5059631;28;20028;-78
2023/08/05 09:58:35;;;;;;;5.93;4.10;;;;;;;;;;5075591;28;20037;-78
2023/08/05 10:01:01;;;;;;;8.05;4.38;;;;;;;;;;5058804;28;20053;-78
2023/08/05 10:03:28;;;;;;;5.65;4.05;;;;;;;;;;5075827;28;20032;-77
2023/08/05 10:05:56;;;;;;;4.70;3.75;;;;;;;;;;5060581;28;20042;-78
2023/08/05 10:08:24;;;;;;;5.82;4.00;;;;;;;;;;5058273;28;20423;-78
2023/08/05 10:10:49;;;;;;;5.60;4.00;;;;;;;;;;5057894;28;20098;-78
2023/08/05 10:13:17;;;;;;;5.57;4.00;;;;;;;;;;5058946;28;20488;-78
2023/08/05 10:15:47;;;;;;;8.85;4.25;;;;;;;;;;5058638;28;20447;-78
2023/08/05 10:18:15;;;;;;;3.65;3.35;;;;;;;;;;5059021;28;20037;-78
2023/08/05 10:20:41;;;;;;;6.80;3.30;;;;;;;;;;5060021;28;20021;-78
2023/08/05 10:23:10;;;;;;;3.65;3.35;;;;;;;;;;5059653;28;20048;-78
2023/08/05 10:25:44;;;;;;;4.40;3.20;;;;;;;;;;5054816;28;20108;-78
2023/08/05 10:28:31;;;;;;;;;;;;;;;;;;5055401;28;20040;-78
2023/08/05 10:30:57;;;;;;;4.00;3.15;;;;;;;;;;5054389;28;19913;-77
2023/08/05 10:33:24;;;;;;;5.35;3.42;;;;;;;;;;5053019;28;20055;-78
2023/08/05 10:35:49;;;;;;;4.65;3.55;;;;;;;;;;5053412;28;20029;-77
2023/08/05 10:38:19;;;;;;;8.32;3.60;;;;;;;;;;5052929;28;20465;-78
2023/08/05 10:41:04;;;;;;;4.97;3.13;;;;;;;;;;5053344;28;20033;-78
2023/08/05 10:43:32;;;;;;;5.30;3.65;;;;;;;;;;5059520;28;20036;-78
2023/08/05 10:45:59;;;;;;;5.00;3.45;;;;;;;;;;5059272;28;20321;-78
2023/08/05 10:48:29;;;;;;;5.38;3.40;;;;;;;;;;5057879;28;20108;-78
2023/08/05 10:50:55;;;;;;;5.75;3.45;;;;;;;;;;5057446;28;20021;-79
2023/08/05 10:53:21;;;;;;;5.00;3.80;;;;;;;;;;5058382;28;20051;-78
2023/08/05 10:55:53;;;;;;;4.63;2.83;;;;;;;;;;5057728;28;20033;-79
2023/08/05 10:58:23;;;;;;;6.28;2.92;;;;;;;;;;5058398;28;20032;-77
2023/08/05 11:01:03;;;;;;;5.80;2.65;;;;;;;;;;5073930;28;20534;-78
2023/08/05 11:03:45;;;;;;;3.58;2.80;;;;;;;;;;5057855;28;20112;-77
2023/08/05 11:06:11;;;;;;;4.20;3.35;;;;;;;;;;5058140;28;20025;-77
2023/08/05 11:08:38;;;;;;;6.50;2.90;;;;;;;;;;5058222;28;20035;-76
2023/08/05 11:11:05;;;;;;;4.30;2.97;;;;;;;;;;5071777;28;20120;-78
2023/08/05 11:13:38;;;;;;;7.30;3.00;;;;;;;;;;5071537;28;20098;-80
2023/08/05 11:16:05;;;;;;;3.25;2.95;;;;;;;;;;5056570;28;20052;-77
2023/08/05 11:18:31;;;;;;;3.03;2.67;;;;;;;;;;5056160;28;20040;-77
2023/08/05 11:20:57;;;;;;;4.75;2.75;;;;;;;;;;5057096;28;20025;-78
2023/08/05 11:23:23;;;;;;;3.60;2.80;;;;;;;;;;5056507;28;20056;-78
2023/08/05 11:25:50;;;;;;;7.20;2.80;;;;;;;;;;5057189;28;20061;-78
2023/08/05 11:28:15;;;;;;;3.42;3.13;;;;;;;;;;5055954;28;20040;-77
2023/08/05 11:30:41;;;;;;;2.90;2.70;;;;;;;;;;5056168;28;20032;-77
2023/08/05 11:33:06;;;;;;;3.67;2.85;;;;;;;;;;5055996;28;20055;-78
2023/08/05 11:35:32;;;;;;;8.07;3.20;;;;;;;;;;5056395;28;20047;-78
2023/08/05 11:37:57;;;;;;;11.63;3.53;;;;;;;;;;5056090;28;20119;-78
2023/08/05 11:40:24;;;;;;;6.35;2.30;;;;;;;;;;5071015;28;20061;-77
2023/08/05 11:42:50;;;;;;;6.47;2.75;;;;;;;;;;5054907;28;20029;-77
2023/08/05 11:45:16;;;;;;;3.95;2.58;;;;;;;;;;5054516;28;20032;-77
2023/08/05 11:47:42;;;;;;;3.67;3.13;;;;;;;;;;5070574;28;20025;-77
2023/08/05 11:50:09;;;;;;;4.50;3.30;;;;;;;;;;5070387;28;20037;-80
2023/08/05 11:52:35;;;;;;;4.80;3.58;;;;;;;;;;5055241;28;20037;-79
2023/08/05 11:55:03;;;;;;;6.78;3.17;;;;;;;;;;5057869;28;20067;-78
2023/08/05 11:57:29;;;;;;;7.57;3.08;;;;;;;;;;5058384;28;20039;-78
2023/08/05 11:59:57;;;;;;;7.07;3.50;;;;;;;;;;5057934;28;20025;-77
2023/08/05 12:02:26;;;;;;;6.65;3.38;;;;;;;;;;5056912;28;20048;-78
2023/08/05 12:04:56;;;;;;;6.03;3.65;;;;;;;;;;5073357;28;20035;-78
2023/08/05 12:07:22;;;;;;;6.47;4.07;;;;;;;;;;5058210;28;20029;-78
2023/08/05 12:10:04;;;;;;;4.78;3.30;;;;;;;;;;5057699;28;20052;-77
2023/08/05 12:12:30;;;;;;;5.97;3.53;;;;;;;;;;5056886;28;20029;-77
2023/08/05 12:15:24;;;;;;;8.65;4.53;;;;;;;;;;5057475;28;20029;-78
2023/08/05 12:17:51;;;;;;;7.55;4.35;;;;;;;;;;5056755;28;20040;-78
2023/08/05 12:20:18;;;;;;;8.02;4.57;;;;;;;;;;5072985;28;20040;-76
2023/08/05 12:22:44;;;;;;;4.20;3.80;;;;;;;;;;5058100;28;20369;-77
2023/08/05 12:25:10;;;;;;;6.13;3.97;;;;;;;;;;5058434;28;20033;-78
2023/08/05 12:27:36;;;;;;;4.13;3.30;;;;;;;;;;5073725;28;20063;-77
2023/08/05 12:30:02;;;;;;;4.53;3.88;;;;;;;;;;5058185;28;20113;-77
2023/08/05 12:32:28;;;;;;;6.57;3.40;;;;;;;;;;5072432;28;20528;-75
2023/08/05 12:34:53;;;;;;;3.58;2.70;;;;;;;;;;5071407;28;20104;-77
2023/08/05 12:37:19;;;;;;;5.53;3.17;;;;;;;;;;5057002;28;20059;-77
2023/08/05 12:39:44;;;;;;;4.80;3.05;;;;;;;;;;5056908;28;20029;-78
2023/08/05 12:42:09;;;;;;;4.63;3.17;;;;;;;;;;5071969;28;20056;-78
2023/08/05 12:44:35;;;;;;;5.05;2.72;;;;;;;;;;5056873;28;20045;-77
2023/08/05 12:47:00;;;;;;;4.95;2.53;;;;;;;;;;5056674;28;20036;-78
2023/08/05 12:49:26;;;;;;;5.18;2.65;;;;;;;;;;5055961;28;20033;-79
2023/08/05 12:51:51;;;;;;;2.90;2.38;;;;;;;;;;5056502;28;20059;-79
2023/08/05 12:54:16;;;;;;;5.95;2.67;;;;;;;;;;5072764;28;20033;-79
2023/08/05 12:56:42;;;;;;;3.35;2.60;;;;;;;;;;5056915;28;20053;-79
2023/08/05 12:59:07;;;;;;;4.95;2.78;;;;;;;;;;5070943;28;20562;-79
2023/08/05 13:01:32;;;;;;;2.70;2.40;;;;;;;;;;5056352;28;20040;-77
2023/08/05 13:03:58;;;;;;;2.53;2.33;;;;;;;;;;5056961;28;20029;-78
2023/08/05 13:06:23;;;;;;;3.08;2.45;;;;;;;;;;5058199;28;20033;-78
2023/08/05 13:08:49;;;;;;;3.88;2.80;;;;;;;;;;5072221;28;20036;-78
2023/08/05 13:11:14;;;;;;;4.07;2.67;;;;;;;;;;5071916;28;20056;-79
2023/08/05 13:13:40;;;;;;;4.05;3.65;;;;;;;;;;5056121;28;20033;-78
2023/08/05 13:16:05;;;;;;;6.03;4.13;;;;;;;;;;5056762;28;20083;-77
2023/08/05 13:18:30;;;;;;;2.50;2.30;;;;;;;;;;5057845;28;20032;-79
2023/08/05 13:20:56;;;;;;;1.92;1.83;;;;;;;;;;5062291;28;20025;-79
2023/08/05 13:23:21;;;;;;;4.43;2.30;;;;;;;;;;5061232;28;20083;-79
2023/08/05 13:25:46;;;;;;;3.28;2.55;;;;;;;;;;5060780;28;20061;-79
2023/08/05 13:28:12;;;;;;;7.35;2.55;;;;;;;;;;5076821;28;20044;-78
2023/08/05 13:30:37;;;;;;;3.03;2.72;;;;;;;;;;5060249;28;20039;-78
2023/08/05 13:33:02;;;;;;;3.17;2.63;;;;;;;;;;5063943;28;20087;-79
2023/08/05 13:35:28;;;;;;;3.03;2.53;;;;;;;;;;5040507;28;20034;-79
2023/08/05 13:37:53;;;;;;;2.70;2.33;;;;;;;;;;5039702;28;20060;-78
2023/08/05 13:40:19;;;;;;;2.15;2.00;;;;;;;;;;5055189;28;20105;-77
2023/08/05 13:42:44;;;;;;;3.17;2.45;;;;;;;;;;5055191;28;20037;-78
2023/08/05 13:45:10;;;;;;;3.50;2.40;;;;;;;;;;5056004;28;20025;-78
2023/08/05 13:47:35;;;;;;;2.95;2.35;;;;;;;;;;5057577;28;20025;-78
2023/08/05 13:50:00;;;;;;;2.10;2.00;;;;;;;;;;5075128;28;20083;-78
2023/08/05 13:52:26;;;;;;;2.25;1.83;;;;;;;;;;5061829;28;20033;-77
2023/08/05 13:54:51;;;;;;;3.53;1.75;;;;;;;;;;5076198;28;20049;-77
2023/08/05 13:57:16;;;;;;;2.95;2.15;;;;;;;;;;5061514;28;20031;-79
2023/08/05 13:59:42;;;;;;;1.80;1.70;;;;;;;;;;5063709;28;20047;-77
2023/08/05 14:02:07;;;;;;;2.00;1.80;;;;;;;;;;5061754;28;20074;-77
2023/08/05 14:04:32;;;;;;;1.70;1.60;;;;;;;;;;5062625;28;20033;-77
2023/08/05 14:06:58;;;;;;;3.42;2.50;;;;;;;;;;5062478;28;20032;-76
2023/08/05 14:09:23;;;;;;;3.00;2.30;;;;;;;;;;5075361;28;20090;-77
2023/08/05 14:11:48;;;;;;;2.40;2.20;;;;;;;;;;5080290;28;20488;-78
2023/08/05 14:14:13;;;;;;;7.50;2.97;;;;;;;;;;5063230;28;20079;-78
2023/08/05 14:16:39;;;;;;;2.88;2.42;;;;;;;;;;5062952;28;20063;-78
2023/08/05 14:19:06;;;;;;;3.08;2.67;;;;;;;;;;5061851;28;20037;-77
2023/08/05 14:21:31;;;;;;;2.97;2.50;;;;;;;;;;5062121;28;20040;-78
2023/08/05 14:23:57;;;;;;;7.53;2.80;;;;;;;;;;5062294;28;20025;-78
2023/08/05 14:26:23;;;;;;;5.10;3.17;;;;;;;;;;5076544;28;20052;-78
2023/08/05 14:28:48;;;;;;;4.03;3.60;;;;;;;;;;5061248;28;20036;-78
2023/08/05 14:31:14;;;;;;;5.75;3.95;;;;;;;;;;5075421;28;20111;-75
2023/08/05 14:33:39;;;;;;;3.60;3.15;;;;;;;;;;5061293;28;20048;-77